Huvudsida
METAR-TAF:

METAR-TAF

Flygplatser :

Dammam, Saudiarabien

latitud: 26-28N, longitud: 049-47E, höjd: 22 m

Aktuellt väderrapport

Denna rapport gjordes för 8 minuter sedan, klockan 16:00 UTC
Vind 6 kt från ost/nordost
Temperatur 21°C
Fuktighet 73%
Tryck 1015 hPa
Sikt 10 km eller mer
Få moln på en höjd av 3500 ft

METAR: OEDF 181600Z 06006KT 9999 FEW035 21/16 Q1015 NOSIG

Tid: 19:08 (16:08 UTC)

Väderprognos

Denna rapport gjordes för 5 timmar och 8 minuter sedan, klockan 11:00 UTC
Prognos gäller från 18 kl. 12 UTC till 19 kl. 18 UTC
Vind 8 kt från ost/nordost
Sikt: 8000 m
Spridda moln på en höjd av 4000 ft
Brutna moln på en höjd av 8000 ft
Temporärt
från 18 kl. 12 UTC till 19 kl. 00 UTC
Sikt: 4000 m
Få moln på en höjd av 3000 ft, Cumulonimbus.
högt damm drev, åska, regn
Blir
från 18 kl. 18 UTC till 18 kl. 20 UTC
Vind 8 kt från nordväst

TAF: OEDF 181100Z 1812/1918 06008KT 8000 SCT040 BKN080 TEMPO 1812/1900 4000 BLDU TSRA FEW030CB BECMG 1818/1820 32008KT

Aktuella väderrapporter och prognoser från 4000 flygplatser (METAR- och TAF-rapporter).

De tillgängliga stationerna syns som gula och röda prickar på kartan.

För musen över prickarna för att se namnen på stationerna.

Klicka sedan för att få väderrapporter och prognoser.

För att ändra kartan: Klicka på de gröna knapparna med ett svart kors på för att zooma in; den gröna knappen med ett streck på för att zooma ut; eller på de gröna pilarna för angränsande kartor.


METAR-TAF: